createdAt,value
2017-04-23T18:13:12.755Z,21.5
2017-04-23T18:14:22.388Z,21.49
2017-04-23T18:15:32.018Z,21.5
2017-04-23T18:16:41.947Z,21.5
2017-04-23T18:17:51.592Z,21.49
2017-04-23T18:19:01.361Z,21.5
2017-04-23T18:20:10.679Z,21.52
2017-04-23T18:21:20.928Z,21.49
2017-04-23T18:22:30.854Z,21.44
2017-04-23T18:23:40.158Z,21.47
2017-04-23T18:24:50.542Z,21.46
2017-04-23T18:26:00.483Z,21.44
2017-04-23T18:27:10.440Z,21.5
2017-04-23T18:28:20.391Z,21.37
2017-04-23T18:29:30.304Z,21.4
2017-04-23T18:30:40.072Z,21.49
2017-04-23T18:31:49.372Z,21.46
2017-04-23T18:32:59.000Z,21.46
2017-04-23T18:34:09.261Z,21.44
2017-04-23T18:35:19.488Z,21.4
2017-04-23T18:36:29.563Z,21.4
2017-04-23T18:37:39.496Z,21.4
2017-04-23T18:38:49.429Z,21.38
2017-04-23T18:39:59.044Z,21.43
2017-04-23T18:41:09.321Z,21.38
2017-04-23T18:42:19.414Z,21.46
2017-04-23T18:43:29.644Z,21.46
2017-04-23T18:44:39.886Z,21.46
2017-04-23T18:45:49.809Z,21.34
2017-04-23T18:47:00.108Z,21.42
2017-04-23T18:48:10.292Z,21.43
2017-04-23T18:49:20.574Z,21.47
2017-04-23T18:50:29.878Z,21.44
2017-04-23T18:51:39.793Z,21.35
2017-04-23T18:52:49.752Z,21.47
2017-04-23T18:53:59.542Z,21.4
2017-04-23T18:55:09.161Z,21.29
2017-04-23T18:56:19.381Z,21.37
2017-04-23T18:57:28.994Z,21.4
2017-04-23T18:58:38.918Z,21.4
2017-04-23T18:59:49.015Z,21.35
2017-04-23T19:00:58.646Z,21.37
2017-04-23T19:02:08.868Z,21.37
2017-04-23T19:03:19.108Z,21.35
2017-04-23T19:04:28.415Z,21.37
2017-04-23T19:05:38.183Z,21.37
2017-04-23T19:06:47.798Z,21.31
2017-04-23T19:07:57.413Z,21.35
2017-04-23T19:09:07.036Z,21.34
2017-04-23T19:10:17.267Z,21.38
2017-04-23T19:11:27.652Z,21.43
2017-04-23T19:12:37.273Z,21.42
2017-04-23T19:13:47.314Z,21.35
2017-04-23T19:14:57.229Z,21.35
2017-04-23T19:16:07.459Z,21.35
2017-04-23T19:17:17.209Z,21.38
2017-04-23T19:18:26.517Z,21.27
2017-04-23T19:19:36.744Z,21.28
2017-04-23T19:20:46.053Z,21.32
2017-04-23T19:21:55.064Z,21.32
2017-04-23T19:23:05.480Z,21.32
2017-04-23T19:24:15.124Z,21.27
2017-04-23T19:25:25.357Z,21.32
2017-04-23T19:26:35.579Z,21.29
2017-04-23T19:27:45.509Z,21.28
2017-04-23T19:28:55.898Z,21.34
2017-04-23T19:30:05.509Z,21.34
2017-04-23T19:31:15.425Z,21.32
2017-04-23T19:32:24.718Z,21.34
2017-04-23T19:33:34.627Z,21.34
2017-04-23T19:34:44.699Z,21.35
2017-04-23T19:35:54.623Z,21.34
2017-04-23T19:37:04.279Z,21.31
2017-04-23T19:38:14.525Z,21.32
2017-04-23T19:39:24.782Z,21.25
2017-04-23T19:40:34.874Z,21.32
2017-04-23T19:41:45.505Z,21.25
2017-04-23T19:42:55.413Z,21.28
2017-04-23T19:44:05.080Z,21.29
2017-04-23T19:45:14.993Z,21.27
2017-04-23T19:46:25.192Z,21.34
2017-04-23T19:47:36.094Z,21.35
2017-04-23T19:48:45.728Z,21.28
2017-04-23T19:49:55.971Z,21.29
2017-04-23T19:51:06.213Z,21.29
2017-04-23T19:52:15.317Z,21.28
2017-04-23T19:53:25.543Z,21.24
2017-04-23T19:54:35.786Z,21.22
2017-04-23T19:55:45.709Z,21.22
2017-04-23T19:56:55.010Z,21.22
2017-04-23T19:58:05.114Z,21.25
2017-04-23T19:59:14.130Z,21.29
2017-04-23T20:00:24.046Z,21.25
2017-04-23T20:01:33.659Z,21.22
2017-04-23T20:02:42.660Z,21.31
2017-04-23T20:03:53.192Z,21.24
2017-04-23T20:05:02.832Z,21.34
2017-04-23T20:06:13.069Z,21.28
2017-04-23T20:07:23.019Z,21.28
2017-04-23T20:08:32.945Z,21.32
2017-04-23T20:09:43.216Z,21.32
2017-04-23T20:10:52.840Z,21.35
2017-04-23T20:12:02.749Z,21.35
2017-04-23T20:13:12.657Z,21.22
2017-04-23T20:14:21.648Z,21.34
2017-04-23T20:15:31.553Z,21.32
2017-04-23T20:16:41.462Z,21.24
2017-04-23T20:17:51.075Z,21.27
2017-04-23T20:19:00.687Z,21.19
2017-04-23T20:20:10.995Z,21.27
2017-04-23T20:21:21.374Z,21.27
2017-04-23T20:22:30.983Z,21.22
2017-04-23T20:23:40.890Z,21.29
2017-04-23T20:24:50.817Z,21.25
2017-04-23T20:26:00.734Z,21.28
2017-04-23T20:27:11.252Z,21.27
2017-04-23T20:28:20.865Z,21.25
2017-04-23T20:29:30.480Z,21.27
2017-04-23T20:30:40.088Z,21.27
2017-04-23T20:31:49.428Z,21.24
2017-04-23T20:32:59.493Z,21.27
2017-04-23T20:34:09.409Z,21.25
2017-04-23T20:35:19.348Z,21.17
2017-04-23T20:36:29.263Z,21.24
2017-04-23T20:37:39.480Z,21.21
2017-04-23T20:38:49.564Z,21.22
2017-04-23T20:39:59.794Z,21.19
2017-04-23T20:41:09.740Z,21.22
2017-04-23T20:42:19.958Z,21.22
2017-04-23T20:43:29.567Z,21.16
2017-04-23T20:44:39.530Z,21.14
2017-04-23T20:45:49.442Z,21.21
2017-04-23T20:46:59.381Z,21.21
2017-04-23T20:48:09.322Z,21.16
2017-04-23T20:49:18.620Z,21.27
2017-04-23T20:50:28.485Z,21.27
2017-04-23T20:51:38.407Z,21.25
2017-04-23T20:52:48.342Z,21.17
2017-04-23T20:53:58.572Z,21.22
2017-04-23T20:55:08.792Z,21.22
2017-04-23T20:56:19.345Z,21.22
2017-04-23T20:57:29.281Z,21.27
2017-04-23T20:58:38.926Z,21.22
2017-04-23T20:59:49.152Z,21.22
2017-04-23T21:00:59.072Z,21.25
2017-04-23T21:02:08.710Z,21.22
2017-04-23T21:03:17.702Z,21.25
2017-04-23T21:04:27.614Z,21.22
2017-04-23T21:05:38.223Z,21.22
2017-04-23T21:06:48.142Z,21.22
2017-04-23T21:07:58.720Z,21.16
2017-04-23T21:09:08.334Z,21.27
2017-04-23T21:10:18.242Z,21.17
2017-04-23T21:11:27.859Z,21.24
2017-04-23T21:12:37.764Z,21.22
2017-04-23T21:13:48.144Z,21.25
2017-04-23T21:14:58.372Z,21.27
2017-04-23T21:16:08.588Z,21.24
2017-04-23T21:17:18.508Z,21.16
2017-04-23T21:18:27.796Z,21.19
2017-04-23T21:19:38.056Z,21.22
2017-04-23T21:20:47.374Z,21.28
2017-04-23T21:21:57.272Z,21.21
2017-04-23T21:23:06.879Z,21.22
2017-04-23T21:24:16.787Z,21.22
2017-04-23T21:25:27.171Z,21.19
2017-04-23T21:26:37.077Z,21.22
2017-04-23T21:27:46.979Z,21.22
2017-04-23T21:28:56.886Z,21.22
2017-04-23T21:30:06.495Z,21.21
2017-04-23T21:31:16.192Z,21.25
2017-04-23T21:32:26.329Z,21.27
2017-04-23T21:33:37.366Z,21.24
2017-04-23T21:34:47.374Z,21.24
2017-04-23T21:35:57.382Z,21.19
2017-04-23T21:37:06.853Z,21.22
2017-04-23T21:38:17.339Z,21.19
2017-04-23T21:39:27.297Z,21.17
2017-04-23T21:40:37.555Z,21.17
2017-04-23T21:41:48.522Z,21.21
2017-04-23T21:42:59.091Z,21.22
2017-04-23T21:44:09.735Z,21.21
2017-04-23T21:45:20.479Z,21.27
2017-04-23T21:46:30.502Z,21.24
2017-04-23T21:47:40.143Z,21.17
2017-04-23T21:48:50.800Z,21.27
2017-04-23T21:50:00.731Z,21.17
2017-04-23T21:51:10.350Z,21.17
2017-04-23T21:52:20.009Z,21.28
2017-04-23T21:53:30.243Z,21.29
2017-04-23T21:54:40.584Z,21.21
2017-04-23T21:55:50.884Z,21.28
2017-04-23T21:57:01.510Z,21.21
2017-04-23T21:58:11.428Z,21.27
2017-04-23T21:59:21.658Z,21.25
2017-04-23T22:00:31.947Z,21.27
2017-04-23T22:01:41.874Z,21.22
2017-04-23T22:02:52.118Z,21.19
2017-04-23T22:04:01.728Z,21.24
2017-04-23T22:05:11.651Z,21.24
2017-04-23T22:06:21.861Z,21.27
2017-04-23T22:07:31.470Z,21.22
2017-04-23T22:08:41.079Z,21.24
2017-04-23T22:09:51.316Z,21.21
2017-04-23T22:11:01.548Z,21.27
2017-04-23T22:12:11.722Z,21.22
2017-04-23T22:13:21.324Z,21.24
2017-04-23T22:14:31.544Z,21.16
2017-04-23T22:15:41.140Z,21.22
2017-04-23T22:16:50.767Z,21.19
2017-04-23T22:18:00.971Z,21.16
2017-04-23T22:19:10.581Z,21.27
2017-04-23T22:20:19.892Z,21.21
2017-04-23T22:21:30.106Z,21.25
2017-04-23T22:22:40.017Z,21.21
2017-04-23T22:23:50.065Z,21.25
2017-04-23T22:24:59.706Z,21.24
2017-04-23T22:26:09.927Z,21.16
2017-04-23T22:27:19.550Z,21.21
2017-04-23T22:28:29.765Z,21.16
2017-04-23T22:29:39.208Z,21.27
2017-04-23T22:30:48.820Z,21.22
2017-04-23T22:31:58.724Z,21.16
2017-04-23T22:33:08.336Z,21.16
2017-04-23T22:34:17.996Z,21.14
2017-04-23T22:35:28.451Z,21.19
2017-04-23T22:36:38.381Z,21.17
2017-04-23T22:37:48.582Z,21.19
2017-04-23T22:38:58.486Z,21.19
2017-04-23T22:40:08.709Z,21.14
2017-04-23T22:41:18.911Z,21.14
2017-04-23T22:42:29.138Z,21.16
2017-04-23T22:43:38.767Z,21.16
2017-04-23T22:44:48.376Z,21.09
2017-04-23T22:45:57.977Z,21.1
2017-04-23T22:47:08.223Z,21.13
2017-04-23T22:48:18.119Z,21.1
2017-04-23T22:49:28.024Z,21.13
2017-04-23T22:50:37.317Z,21.1
2017-04-23T22:51:47.227Z,21.07
2017-04-23T22:52:57.736Z,21.03
2017-04-23T22:54:07.946Z,21.03
2017-04-23T22:55:17.859Z,21.09
2017-04-23T22:56:27.761Z,21.07
2017-04-23T22:57:37.666Z,21.13
2017-04-23T22:58:47.352Z,21.1
2017-04-23T22:59:56.673Z,21.07
2017-04-23T23:01:06.885Z,21.04
2017-04-23T23:02:16.170Z,21.13
2017-04-23T23:03:26.376Z,21.16
2017-04-23T23:04:36.569Z,21.12
2017-04-23T23:05:46.471Z,21.09
2017-04-23T23:06:56.374Z,21.09
2017-04-23T23:08:06.274Z,21.1
2017-04-23T23:09:16.186Z,21.09
2017-04-23T23:10:26.400Z,21.07
2017-04-23T23:11:36.304Z,21.04
2017-04-23T23:12:46.199Z,21.03
2017-04-23T23:13:56.097Z,21.06
2017-04-23T23:15:06.020Z,21.03
2017-04-23T23:16:15.972Z,21.04
2017-04-23T23:17:26.189Z,21.03
2017-04-23T23:18:36.389Z,21.03
2017-04-23T23:19:46.299Z,21.06
2017-04-23T23:20:55.932Z,21.06
2017-04-23T23:22:05.675Z,21.06
2017-04-23T23:23:15.874Z,21.04
2017-04-23T23:24:26.085Z,21.06
2017-04-23T23:25:36.296Z,21.01
2017-04-23T23:26:46.206Z,21.01
2017-04-23T23:27:56.411Z,21.07
2017-04-23T23:29:06.660Z,21.01
2017-04-23T23:30:16.873Z,21.06
2017-04-23T23:31:27.084Z,21.03
2017-04-23T23:32:36.993Z,21.1
2017-04-23T23:33:47.380Z,21.09
2017-04-23T23:34:57.590Z,21.07
2017-04-23T23:36:07.792Z,21.01
2017-04-23T23:37:17.703Z,20.95
2017-04-23T23:38:27.917Z,20.97
2017-04-23T23:39:37.809Z,20.97
2017-04-23T23:40:47.411Z,21.1
2017-04-23T23:41:57.331Z,20.95
2017-04-23T23:43:07.548Z,20.97
2017-04-23T23:44:17.143Z,20.95
2017-04-23T23:45:27.701Z,20.99
2017-04-23T23:46:37.594Z,20.98
2017-04-23T23:47:47.516Z,21.03
2017-04-23T23:48:57.741Z,20.97
2017-04-23T23:50:07.635Z,20.95
2017-04-23T23:51:17.537Z,20.99
2017-04-23T23:52:27.449Z,20.99
2017-04-23T23:53:37.043Z,21.01
2017-04-23T23:54:46.942Z,20.97
2017-04-23T23:55:56.837Z,21.03
2017-04-23T23:57:07.406Z,20.94
2017-04-23T23:58:17.311Z,20.95
2017-04-23T23:59:27.210Z,20.99
